Flight Track Log - Related Links

Times and Time Zones

All times are in EDT time to prevent confusion due to time zone crossing. See the UAL4335 flight status page for this flight to view local times or setup timezone preferences in your user account.

Time Position Orientation Groundspeed Altitude Reporting Facility
EDT Latitude Longitude Course Direction KTS MPH feet Rate Location/Type
Tue 03:54:48 PM 29.9597 -95.3439 291° West 147 169 700  Level Houston Center
Tue 03:56:04 PM 29.9103 -95.3872 217° Southwest 233 268 3,100 2,110 Climbing Houston Center
Tue 03:56:19 PM 29.8983 -95.4092 238° Southwest 250 288 3,900 2,710 Climbing Houston Center
Tue 03:57:06 PM 29.8986 -95.4600 270° West 253 291 5,900 2,513 Climbing Houston Center
Tue 03:58:00 PM 30.0338 -95.8057 276° West  Level FlightAware Approximate
Tue 03:58:16 PM 29.9269 -95.5622 288° West 278 320 8,800  Level Houston Center
Tue 03:59:00 PM 30.0438 -95.9246 276° West  Level FlightAware Approximate
Tue 03:59:11 PM 29.9592 -95.6200 303° West 285 328 10,500  Level Houston Center
Tue 04:00:00 PM 30.0636 -96.0407 291° West  Level FlightAware Approximate
Tue 04:00:13 PM 29.9978 -95.7075 297° West 311 358 11,700  Level Houston Center
Tue 04:01:15 PM 30.0236 -95.8311 284° West 336 387 13,100 1,452 Climbing Houston Center
Tue 04:02:17 PM 30.0461 -95.9406 283° West 350 403 14,700 1,500 Climbing Houston Center
Tue 04:03:19 PM 30.0703 -96.0586 283° West 354 407 16,200 1,403 Climbing Houston Center
Tue 04:04:21 PM 30.0883 -96.1725 280° West 361 415 17,600 1,306 Climbing Houston Center
Tue 04:05:23 PM 30.1058 -96.2875 280° West 366 421 18,900 1,344 Climbing Houston Center
Tue 04:06:26 PM 30.1233 -96.4061 280° West 376 433 20,400 1,344 Climbing Houston Center
Tue 04:07:28 PM 30.1433 -96.5353 280° West 378 435 21,700 1,161 Climbing Houston Center
Tue 04:08:30 PM 30.1617 -96.6592 280° West 385 443 22,800 1,065 Climbing Houston Center
Tue 04:09:32 PM 30.1811 -96.7861 280° West 393 452 23,900 1,161 Climbing Houston Center
Tue 04:10:34 PM 30.2033 -96.9372 280° West 401 461 25,200 1,113 Climbing Houston Center
Tue 04:11:36 PM 30.2219 -97.0636 280° West 396 456 26,200 871 Climbing Houston Center
Tue 04:12:38 PM 30.2519 -97.1897 285° West 405 466 27,000 1,645 Climbing Houston Center
Tue 04:13:40 PM 30.2839 -97.3106 287° West 392 451 29,600 2,352 Climbing Houston Center
Tue 04:14:43 PM 30.3128 -97.4139 288° West 342 394 31,900 1,824 Climbing Houston Center
Tue 04:15:45 PM 30.3375 -97.5128 286° West 320 368 33,400 1,258 Climbing Houston Center
Tue 04:16:47 PM 30.3636 -97.6100 287° West 314 361 34,500 1,161 Climbing Houston Center
Tue 04:17:49 PM 30.3872 -97.7072 286° West 311 358 35,800 726 Climbing Houston Center
Tue 04:18:51 PM 30.4172 -97.8172 288° West 306 352 36,000 97 Climbing Houston Center
Tue 04:19:53 PM 30.4425 -97.9214 286° West 328 377 36,000  Level Houston Center
Tue 04:20:55 PM 30.4700 -98.0308 286° West 347 399 36,000  Level Houston Center
Tue 04:21:57 PM 30.5000 -98.1489 286° West 373 429 36,000  Level Houston Center
Tue 04:23:00 PM 30.5314 -98.2719 287° West 390 449 36,000  Level Houston Center
Tue 04:24:02 PM 30.5642 -98.3986 287° West 403 464 36,000  Level Houston Center
Tue 04:25:04 PM 30.5947 -98.5217 286° West 394 453 36,000  Level Houston Center
Tue 04:26:06 PM 30.6244 -98.6428 286° West 387 445 36,000  Level Houston Center
Tue 04:27:08 PM 30.6603 -98.7867 286° West 393 452 36,000  Level Houston Center
Tue 04:28:10 PM 30.6914 -98.9111 286° West 398 458 36,000  Level Houston Center
Tue 04:29:12 PM 30.7211 -99.0328 286° West 390 449 36,000  Level Houston Center
Tue 04:30:14 PM 30.7528 -99.1578 286° West 382 440 36,000  Level Houston Center
Tue 04:31:17 PM 30.7814 -99.2747 286° West 379 436 36,000  Level Houston Center
Tue 04:32:19 PM 30.8094 -99.3947 285° West 388 447 36,000  Level Houston Center
Tue 04:33:21 PM 30.8372 -99.5156 285° West 383 441 36,000  Level Houston Center
Tue 04:34:23 PM 30.8669 -99.6389 286° West 397 457 36,000  Level Houston Center
Tue 04:35:25 PM 30.9042 -99.7878 286° West 400 460 36,000  Level Houston Center
Tue 04:36:27 PM 30.9333 -99.9125 285° West 397 457 36,000  Level Houston Center
Tue 04:37:29 PM 30.9622 -100.0317 286° West 384 442 36,000  Level Houston Center
Tue 04:38:31 PM 30.9894 -100.1475 285° West 374 430 36,000  Level Houston Center
Tue 04:39:34 PM 31.0161 -100.2619 285° West 368 423 36,000  Level Houston Center
Tue 04:40:36 PM 31.0492 -100.4031 285° West 376 433 36,000  Level Houston Center
Tue 04:41:38 PM 31.0967 -100.5186 296° West 395 455 36,000  Level Houston Center
Tue 04:42:08 PM 31.1275 -100.5825 299° West 392 451 36,000  Level Fort Worth Center
Tue 04:43:08 PM 31.1875 -100.6792 306° West 401 461 36,000  Level Fort Worth Center
Tue 04:44:08 PM 31.2514 -100.7908 304° West 412 474 36,000 -50 Level Fort Worth Center
Tue 04:45:07 PM 31.3131 -100.9000 303° West 412 474 35,900  Descending Fort Worth Center
Tue 04:45:46 PM 31.3478 -100.9556 306° West 410 472 36,000 98 Climbing Houston Center
Tue 04:46:08 PM 31.3850 -101.0147 306° West 404 465 36,000 -73 Level Fort Worth Center
Tue 04:47:08 PM 31.4614 -101.1222 310° West 409 471 35,900  Descending Fort Worth Center
Tue 04:48:07 PM 31.5397 -101.2256 312° West 422 486 36,000  Climbing Fort Worth Center
Tue 04:49:08 PM 31.6158 -101.3286 311° West 422 486 35,900  Descending Fort Worth Center
Tue 04:50:07 PM 31.6939 -101.4319 312° West 422 486 36,000 50 Climbing Fort Worth Center
Tue 04:51:08 PM 31.7739 -101.5381 312° West 422 486 36,000  Level Fort Worth Center
Tue 04:52:08 PM 31.8539 -101.6444 312° West 422 486 36,000  Level Fort Worth Center
Tue 04:53:07 PM 31.9317 -101.7533 310° West 422 486 36,000  Level Fort Worth Center
Tue 04:54:07 PM 32.0094 -101.8572 311° West 422 486 36,000  Level Fort Worth Center
Tue 04:55:08 PM 32.0889 -101.9692 310° West 433 498 36,000  Level Fort Worth Center
Tue 04:56:07 PM 32.1661 -102.0808 309° West 433 498 36,000  Level Fort Worth Center
Tue 04:57:07 PM 32.2436 -102.1881 311° West 433 498 36,000  Level Fort Worth Center
Tue 04:58:08 PM 32.3231 -102.2956 311° West 433 498 36,000  Level Fort Worth Center
Tue 04:59:07 PM 32.4019 -102.4081 310° West 438 504 36,000  Level Fort Worth Center
Tue 05:00:08 PM 32.4831 -102.5183 311° West 444 511 36,000  Level Fort Worth Center
Tue 05:01:07 PM 32.5542 -102.6183 310° West 444 511 36,000  Level Fort Worth Center
Tue 05:02:07 PM 32.6372 -102.7294 312° West 444 511 36,000  Level Fort Worth Center
Tue 05:03:08 PM 32.7200 -102.8428 311° West 449 517 36,000  Level Fort Worth Center
Tue 05:04:56 PM 32.8636 -103.0461 310° West 457 526 36,000  Level Albuquerque Center
Tue 05:05:58 PM 32.9444 -103.1608 310° West 455 524 36,000  Level Albuquerque Center
Tue 05:07:00 PM 33.0242 -103.2733 310° West 449 517 36,000  Level Albuquerque Center
Tue 05:08:02 PM 33.1169 -103.4053 310° West 438 504 36,000  Level Albuquerque Center
Tue 05:09:03 PM 33.1928 -103.5156 309° West 432 497 36,000  Level Albuquerque Center
Tue 05:10:05 PM 33.2703 -103.6242 310° West 431 496 36,000  Level Albuquerque Center
Tue 05:11:07 PM 33.3547 -103.7433 310° West 437 503 36,000  Level Albuquerque Center
Tue 05:12:09 PM 33.4342 -103.8553 310° West 441 507 36,000  Level Albuquerque Center
Tue 05:13:10 PM 33.5189 -103.9778 310° West 445 512 36,000  Level Albuquerque Center
Tue 05:14:12 PM 33.5981 -104.0933 309° West 448 516 36,000 -242 Level Albuquerque Center
Tue 05:15:14 PM 33.6817 -104.2156 309° West 444 511 35,500 -976 Descending Albuquerque Center
Tue 05:16:15 PM 33.7594 -104.3297 309° West 443 510 34,000 -1,463 Descending Albuquerque Center
Tue 05:17:17 PM 33.8350 -104.4394 310° West 431 496 32,500 -968 Descending Albuquerque Center
Tue 05:18:19 PM 33.9131 -104.5533 310° West 414 476 32,000 -244 Descending Albuquerque Center
Tue 05:19:20 PM 33.9825 -104.6558 309° West 398 458 32,000 -341 Level Albuquerque Center
Tue 05:20:22 PM 34.0550 -104.7575 311° West 396 456 31,300 -1,258 Descending Albuquerque Center
Tue 05:21:24 PM 34.1292 -104.8694 309° West 411 473 29,400 -1,951 Descending Albuquerque Center
Tue 05:22:25 PM 34.2069 -104.9844 309° West 429 494 27,300 -1,659 Descending Albuquerque Center
Tue 05:23:27 PM 34.2867 -105.1028 309° West 441 507 26,000 -629 Descending Albuquerque Center
Tue 05:24:29 PM 34.3664 -105.2206 309° West 445 512 26,000  Level Albuquerque Center
Tue 05:25:30 PM 34.4456 -105.3389 309° West 446 513 26,000  Level Albuquerque Center
Tue 05:26:32 PM 34.5244 -105.4569 309° West 446 513 26,000 -532 Level Albuquerque Center
Tue 05:27:34 PM 34.6031 -105.5739 309° West 444 511 24,900 -1,887 Descending Albuquerque Center
Tue 05:28:36 PM 34.6917 -105.7069 309° West 434 499 22,100 -2,521 Descending Albuquerque Center
Tue 05:29:33 PM 34.7511 -105.8036 307° West 406 467 19,900 -2,390 Descending Albuquerque Center
Tue 05:30:39 PM 34.8275 -105.9139 310° West 382 440 17,200 -2,380 Descending Albuquerque Center
Tue 05:31:34 PM 34.8769 -106.0136 301° West 362 417 15,100 -2,172 Descending Albuquerque Center
Tue 05:32:35 PM 34.8811 -106.1317 272° West 350 403 13,000 -1,525 Descending Albuquerque Center
Tue 05:33:36 PM 34.8853 -106.2394 273° West 322 371 12,000 -496 Descending Albuquerque Center
Tue 05:34:36 PM 34.8872 -106.3347 271° West 271 312 12,000  Level Albuquerque Center
Tue 05:35:37 PM 34.8903 -106.4350 272° West 290 334 12,000 -149 Level Albuquerque Center
Tue 05:36:37 PM 34.8825 -106.5250 264° West 265 305 11,700 -843 Descending Albuquerque Center
Tue 05:37:38 PM 34.8583 -106.6064 250° West 250 288 10,300 -1,426 Descending Albuquerque Center
Tue 05:38:39 PM 34.8342 -106.6875 250° West 252 290 8,800 -1,323 Descending Albuquerque Center
Tue 05:39:45 PM 34.8669 -106.7647 297° West 235 270 7,500 -614 Descending Albuquerque Center
Tue 05:40:46 PM 34.9172 -106.7725 353° North 233 268 7,500 -98 Level Albuquerque Center
Tue 05:41:47 PM 34.9519 -106.7144 54° Northeast 202 232 7,300 -197 Descending Albuquerque Center

Login

Don't have an account? Register now (free) for customized features, flight alerts, and more!